createdAt,value
2022-11-28T00:01:43.132Z,4.90
2022-11-28T00:04:10.336Z,6.97
2022-11-28T00:06:39.453Z,4.13
2022-11-28T00:09:06.814Z,4.70
2022-11-28T00:11:33.482Z,7.35
2022-11-28T00:14:00.121Z,5.43
2022-11-28T00:16:26.910Z,5.97
2022-11-28T00:18:54.777Z,5.43
2022-11-28T00:21:21.645Z,6.28
2022-11-28T00:23:48.769Z,4.50
2022-11-28T00:26:17.557Z,4.28
2022-11-28T00:28:44.364Z,4.25
2022-11-28T00:31:15.602Z,4.28
2022-11-28T00:33:42.359Z,3.78
2022-11-28T00:36:10.116Z,5.50
2022-11-28T00:38:36.774Z,6.00
2022-11-28T00:41:08.710Z,5.97
2022-11-28T00:43:36.185Z,4.30
2022-11-28T00:46:03.353Z,4.00
2022-11-28T00:48:30.170Z,3.58
2022-11-28T00:51:10.035Z,5.28
2022-11-28T00:53:37.843Z,6.72
2022-11-28T00:56:05.758Z,3.90
2022-11-28T00:58:33.938Z,5.65
2022-11-28T01:01:07.092Z,5.07
2022-11-28T01:03:33.775Z,5.45
2022-11-28T01:06:00.458Z,5.68
2022-11-28T01:08:28.035Z,5.53
2022-11-28T01:10:54.689Z,5.95
2022-11-28T01:13:21.312Z,4.72
2022-11-28T01:15:48.105Z,6.25
2022-11-28T01:18:14.865Z,5.28
2022-11-28T01:20:41.896Z,6.10
2022-11-28T01:23:08.600Z,4.90
2022-11-28T01:25:35.306Z,3.95
2022-11-28T01:28:02.039Z,4.38
2022-11-28T01:30:28.857Z,3.50
2022-11-28T01:32:55.527Z,4.47
2022-11-28T01:35:22.097Z,4.25
2022-11-28T01:37:48.690Z,6.22
2022-11-28T01:40:15.341Z,5.30
2022-11-28T01:42:42.081Z,5.10
2022-11-28T01:45:19.500Z,5.50
2022-11-28T01:47:46.836Z,5.32
2022-11-28T01:50:14.374Z,6.43
2022-11-28T01:52:44.528Z,5.22
2022-11-28T01:55:13.864Z,5.10
2022-11-28T01:57:41.218Z,4.50
2022-11-28T02:00:10.378Z,4.45
2022-11-28T02:02:45.843Z,4.70
2022-11-28T02:05:13.568Z,4.68
2022-11-28T02:07:43.744Z,5.00
2022-11-28T02:10:14.897Z,5.63
2022-11-28T02:13:09.323Z,5.15
2022-11-28T02:15:48.666Z,5.85
2022-11-28T02:18:50.154Z,5.40
2022-11-28T02:21:47.696Z,5.78
2022-11-28T02:24:42.668Z,3.60
2022-11-28T02:27:28.192Z,3.70
2022-11-28T02:30:06.733Z,4.22
2022-11-28T02:32:59.264Z,4.60
2022-11-28T02:35:46.160Z,7.40
2022-11-28T02:38:30.850Z,4.13
2022-11-28T02:41:21.599Z,6.90
2022-11-28T02:44:04.184Z,4.53
2022-11-28T02:47:13.540Z,4.97
2022-11-28T02:49:51.584Z,6.35
2022-11-28T02:52:23.504Z,6.60
2022-11-28T02:54:51.978Z,3.88
2022-11-28T02:57:18.678Z,6.50
2022-11-28T02:59:48.842Z,4.35
2022-11-28T03:02:29.373Z,6.18
2022-11-28T03:05:25.178Z,4.57
2022-11-28T03:08:15.875Z,4.45
2022-11-28T03:11:17.511Z,6.30
2022-11-28T03:13:56.442Z,5.38
2022-11-28T03:16:39.474Z,5.70
2022-11-28T03:19:17.505Z,4.55
2022-11-28T03:21:58.794Z,4.95
2022-11-28T03:24:35.180Z,6.22
2022-11-28T03:27:13.411Z,5.32
2022-11-28T03:29:56.918Z,5.05
2022-11-28T03:32:30.287Z,5.05
2022-11-28T03:35:04.639Z,5.55
2022-11-28T03:37:34.964Z,8.45
2022-11-28T03:40:09.225Z,7.72
2022-11-28T03:42:41.127Z,7.97
2022-11-28T03:45:14.069Z,6.70
2022-11-28T03:47:44.872Z,4.68
2022-11-28T03:50:20.787Z,4.95
2022-11-28T03:52:59.186Z,5.65
2022-11-28T03:55:43.403Z,5.15
2022-11-28T03:58:10.103Z,5.95
2022-11-28T04:00:42.389Z,7.90
2022-11-28T04:03:18.492Z,5.30
2022-11-28T04:06:02.372Z,4.47
2022-11-28T04:08:46.284Z,9.40
2022-11-28T04:11:20.729Z,6.60
2022-11-28T04:14:12.201Z,7.40
2022-11-28T04:17:10.463Z,6.40
2022-11-28T04:20:00.947Z,5.65
2022-11-28T04:22:34.597Z,7.60
2022-11-28T04:25:06.842Z,8.70
2022-11-28T04:27:49.734Z,5.25
2022-11-28T04:30:16.513Z,5.50
2022-11-28T04:32:50.049Z,6.05
2022-11-28T04:35:22.375Z,4.50
2022-11-28T04:37:51.354Z,8.10
2022-11-28T04:40:19.415Z,6.75
2022-11-28T04:42:53.155Z,5.90
2022-11-28T04:45:32.314Z,5.35
2022-11-28T04:47:59.594Z,5.97
2022-11-28T04:50:34.391Z,5.80
2022-11-28T04:53:09.365Z,5.75
2022-11-28T04:55:46.354Z,6.72
2022-11-28T04:58:28.978Z,5.80
2022-11-28T05:00:56.296Z,5.15
2022-11-28T05:03:28.059Z,8.50
2022-11-28T05:05:54.888Z,6.10
2022-11-28T05:08:21.677Z,6.75
2022-11-28T05:10:48.567Z,6.00
2022-11-28T05:13:15.577Z,6.53
2022-11-28T05:15:42.306Z,6.53
2022-11-28T05:18:09.171Z,6.80
2022-11-28T05:20:38.146Z,8.80
2022-11-28T05:23:04.931Z,7.88
2022-11-28T05:25:31.631Z,7.00
2022-11-28T05:27:58.261Z,5.97
2022-11-28T05:30:24.856Z,5.93
2022-11-28T05:32:51.591Z,6.35
2022-11-28T05:35:18.297Z,7.47
2022-11-28T05:37:44.888Z,6.00
2022-11-28T05:40:11.791Z,6.47
2022-11-28T05:42:38.416Z,8.32
2022-11-28T05:45:05.626Z,7.28
2022-11-28T05:47:33.367Z,8.80
2022-11-28T05:50:00.223Z,7.75
2022-11-28T05:52:29.566Z,8.32
2022-11-28T05:54:56.261Z,7.95
2022-11-28T05:57:23.040Z,9.15
2022-11-28T05:59:49.677Z,6.88
2022-11-28T06:02:16.404Z,6.20
2022-11-28T06:04:43.184Z,5.50
2022-11-28T06:07:09.875Z,10.23
2022-11-28T06:09:36.564Z,7.00
2022-11-28T06:12:03.352Z,7.18
2022-11-28T06:14:30.013Z,6.43
2022-11-28T06:16:56.824Z,8.38
2022-11-28T06:19:23.439Z,6.75
2022-11-28T06:21:50.848Z,5.88
2022-11-28T06:24:17.670Z,11.00
2022-11-28T06:26:44.332Z,11.77
2022-11-28T06:29:10.989Z,7.03
2022-11-28T06:31:37.749Z,5.97
2022-11-28T06:34:04.433Z,7.45
2022-11-28T06:36:31.053Z,8.18
2022-11-28T06:38:57.907Z,7.68
2022-11-28T06:41:24.715Z,7.65
2022-11-28T06:43:51.351Z,9.25
2022-11-28T06:46:20.308Z,7.43
2022-11-28T06:48:48.517Z,7.38
2022-11-28T06:51:15.496Z,7.13
2022-11-28T06:53:42.667Z,9.30
2022-11-28T06:56:12.375Z,7.65
2022-11-28T06:58:38.976Z,6.15
2022-11-28T07:01:07.743Z,6.80
2022-11-28T07:03:34.472Z,8.23
2022-11-28T07:06:02.393Z,7.28
2022-11-28T07:08:31.166Z,7.57
2022-11-28T07:10:58.538Z,9.07
2022-11-28T07:13:25.517Z,9.38
2022-11-28T07:15:52.227Z,11.55
2022-11-28T07:18:19.080Z,6.15
2022-11-28T07:20:45.764Z,8.48
2022-11-28T07:23:12.433Z,6.95
2022-11-28T07:25:39.071Z,9.40
2022-11-28T07:28:05.754Z,8.63
2022-11-28T07:30:32.434Z,6.80
2022-11-28T07:32:59.064Z,7.75
2022-11-28T07:35:25.686Z,7.03
2022-11-28T07:37:52.367Z,11.07
2022-11-28T07:40:20.565Z,9.18
2022-11-28T07:42:48.689Z,8.02
2022-11-28T07:45:15.894Z,8.73
2022-11-28T07:47:42.845Z,8.40
2022-11-28T07:50:10.742Z,8.02
2022-11-28T07:52:37.423Z,7.55
2022-11-28T07:55:04.295Z,8.82
2022-11-28T07:57:30.888Z,5.95
2022-11-28T07:59:57.537Z,6.70
2022-11-28T08:02:24.140Z,7.50
2022-11-28T08:04:55.071Z,8.88
2022-11-28T08:07:22.166Z,9.23
2022-11-28T08:09:48.866Z,8.85
2022-11-28T08:12:15.498Z,8.82
2022-11-28T08:14:42.669Z,9.68
2022-11-28T08:17:09.663Z,11.88
2022-11-28T08:19:36.272Z,11.88
2022-11-28T08:22:03.044Z,6.88
2022-11-28T08:24:29.667Z,7.60
2022-11-28T08:26:56.970Z,9.23
2022-11-28T08:29:23.654Z,7.43
2022-11-28T08:31:50.330Z,8.38
2022-11-28T08:34:17.112Z,6.50
2022-11-28T08:36:44.017Z,8.77
2022-11-28T08:39:26.769Z,7.72
2022-11-28T08:41:56.960Z,10.93
2022-11-28T08:44:23.568Z,8.95
2022-11-28T08:46:50.248Z,17.48
2022-11-28T08:49:16.962Z,7.82
2022-11-28T08:51:43.617Z,7.40
2022-11-28T08:54:10.469Z,6.85
2022-11-28T08:56:37.153Z,7.88
2022-11-28T08:59:03.967Z,6.47
2022-11-28T09:01:30.798Z,5.95
2022-11-28T09:03:57.579Z,9.48
2022-11-28T09:06:24.924Z,7.38
2022-11-28T09:08:53.904Z,7.38
2022-11-28T09:11:22.289Z,8.55
2022-11-28T09:13:49.327Z,8.40
2022-11-28T09:16:16.163Z,9.90
2022-11-28T09:18:42.928Z,10.32
2022-11-28T09:21:12.281Z,10.55
2022-11-28T09:23:41.026Z,11.73
2022-11-28T09:26:12.747Z,6.72
2022-11-28T09:28:39.619Z,7.82
2022-11-28T09:31:07.492Z,6.18
2022-11-28T09:33:34.861Z,6.88
2022-11-28T09:36:09.972Z,7.10
2022-11-28T09:38:37.782Z,8.88
2022-11-28T09:41:23.342Z,7.18
2022-11-28T09:43:54.748Z,7.93
2022-11-28T09:46:28.584Z,9.70
2022-11-28T09:49:00.905Z,10.07
2022-11-28T09:51:47.304Z,10.20
2022-11-28T09:54:29.321Z,7.93
2022-11-28T09:56:57.739Z,7.05
2022-11-28T09:59:27.199Z,7.43
2022-11-28T10:02:05.116Z,8.00
2022-11-28T10:04:59.296Z,7.80
2022-11-28T10:07:59.689Z,7.93
2022-11-28T10:10:41.457Z,7.65
2022-11-28T10:13:47.034Z,10.30
2022-11-28T10:16:57.903Z,9.63
2022-11-28T10:19:56.665Z,8.80
2022-11-28T10:22:35.996Z,13.38
2022-11-28T10:25:11.763Z,8.07
2022-11-28T10:27:39.259Z,7.10
2022-11-28T10:30:16.176Z,7.05
2022-11-28T10:32:48.770Z,8.18
2022-11-28T10:35:28.765Z,7.85
2022-11-28T10:37:56.210Z,11.95
2022-11-28T10:40:48.693Z,7.18
2022-11-28T10:43:24.687Z,6.72
2022-11-28T10:46:16.173Z,11.50
2022-11-28T10:48:46.803Z,7.32
2022-11-28T10:51:24.538Z,5.60
2022-11-28T10:54:20.393Z,6.43
2022-11-28T10:56:56.180Z,8.35
2022-11-28T10:59:35.995Z,13.80
2022-11-28T11:02:22.142Z,11.65
2022-11-28T11:04:49.150Z,10.18
2022-11-28T11:07:27.978Z,9.18
2022-11-28T11:10:14.443Z,8.23
2022-11-28T11:12:41.996Z,10.60
2022-11-28T11:15:29.829Z,7.55
2022-11-28T11:17:56.929Z,7.60
2022-11-28T11:20:31.544Z,7.57
2022-11-28T11:23:13.762Z,7.38
2022-11-28T11:25:51.016Z,8.57
2022-11-28T11:28:43.117Z,8.95
2022-11-28T11:31:29.622Z,10.10
2022-11-28T11:34:07.624Z,10.10
2022-11-28T11:36:36.893Z,10.63
2022-11-28T11:39:12.595Z,9.52
2022-11-28T11:41:48.198Z,9.02
2022-11-28T11:44:14.750Z,10.13
2022-11-28T11:47:13.910Z,9.25
2022-11-28T11:49:45.085Z,8.15
2022-11-28T11:52:12.825Z,7.72
2022-11-28T11:54:57.540Z,8.60
2022-11-28T11:57:46.057Z,8.50
2022-11-28T12:00:21.942Z,7.70
2022-11-28T12:03:09.956Z,9.90
2022-11-28T12:06:13.298Z,9.57
2022-11-28T12:08:59.863Z,10.95
2022-11-28T12:11:31.309Z,8.27
2022-11-28T12:14:14.116Z,8.07
2022-11-28T12:16:52.177Z,8.02
2022-11-28T12:19:43.315Z,7.22
2022-11-28T12:22:31.052Z,9.48
2022-11-28T12:25:11.360Z,9.35
2022-11-28T12:27:58.302Z,8.45
2022-11-28T12:30:52.432Z,10.57
2022-11-28T12:33:24.563Z,9.77
2022-11-28T12:36:19.842Z,8.13
2022-11-28T12:39:17.667Z,9.23
2022-11-28T12:42:02.057Z,7.78
2022-11-28T12:44:34.678Z,8.55
2022-11-28T12:47:21.168Z,7.38
2022-11-28T12:49:47.834Z,11.10
2022-11-28T12:52:36.860Z,7.70
2022-11-28T12:55:18.828Z,8.95
2022-11-28T12:57:50.313Z,11.80
2022-11-28T13:00:25.832Z,10.32
2022-11-28T13:03:10.049Z,9.15
2022-11-28T13:05:48.445Z,11.07
2022-11-28T13:08:34.044Z,8.75
2022-11-28T13:11:27.274Z,8.10
2022-11-28T13:14:08.728Z,9.93
2022-11-28T13:16:49.459Z,9.90
2022-11-28T13:19:22.029Z,7.72
2022-11-28T13:22:15.688Z,7.85
2022-11-28T13:24:48.284Z,10.63
2022-11-28T13:27:44.138Z,5.93
2022-11-28T13:30:24.314Z,8.02
2022-11-28T13:33:24.863Z,7.90
2022-11-28T13:35:52.154Z,9.85
2022-11-28T13:38:38.408Z,7.75
2022-11-28T13:42:00.952Z,9.07
2022-11-28T13:44:37.771Z,10.85
2022-11-28T13:47:24.582Z,8.55
2022-11-28T13:49:51.226Z,8.70
2022-11-28T13:52:17.784Z,9.88
2022-11-28T13:54:54.905Z,11.38
2022-11-28T13:57:38.259Z,8.77
2022-11-28T14:00:23.955Z,9.05
2022-11-28T14:02:55.866Z,9.00
2022-11-28T14:05:32.933Z,9.23
2022-11-28T14:08:00.720Z,11.20
2022-11-28T14:10:48.911Z,8.77
2022-11-28T14:13:39.421Z,9.45
2022-11-28T14:16:15.123Z,7.88
2022-11-28T14:18:57.178Z,8.70
2022-11-28T14:21:57.539Z,11.98
2022-11-28T14:24:59.682Z,9.23
2022-11-28T14:27:39.721Z,9.27
2022-11-28T14:30:22.948Z,7.53
2022-11-28T14:32:57.368Z,10.60
2022-11-28T14:35:49.753Z,11.75
2022-11-28T14:38:33.650Z,7.95
2022-11-28T14:41:12.685Z,7.72
2022-11-28T14:43:46.072Z,10.80
2022-11-28T14:46:16.187Z,8.52
2022-11-28T14:48:58.245Z,9.90
2022-11-28T14:51:43.777Z,12.30
2022-11-28T14:54:37.160Z,11.35
2022-11-28T14:57:18.584Z,9.93
2022-11-28T14:59:46.941Z,12.10
2022-11-28T15:02:13.738Z,8.57
2022-11-28T15:04:50.540Z,8.65
2022-11-28T15:07:28.126Z,8.68
2022-11-28T15:10:07.661Z,8.48
2022-11-28T15:12:40.803Z,13.55
2022-11-28T15:15:13.312Z,12.32
2022-11-28T15:17:43.144Z,10.80
2022-11-28T15:20:43.914Z,7.60
2022-11-28T15:23:24.963Z,11.88
2022-11-28T15:25:57.364Z,10.48
2022-11-28T15:28:28.167Z,13.68
2022-11-28T15:30:57.348Z,10.50
2022-11-28T15:33:28.265Z,9.68
2022-11-28T15:36:14.977Z,10.23
2022-11-28T15:38:43.250Z,12.15
2022-11-28T15:41:10.528Z,13.00
2022-11-28T15:43:45.170Z,20.58
2022-11-28T15:46:35.739Z,22.55
2022-11-28T15:49:03.864Z,17.27
2022-11-28T15:51:32.877Z,15.55
2022-11-28T15:54:00.980Z,13.13
2022-11-28T15:56:27.930Z,11.23
2022-11-28T15:58:55.166Z,12.98
2022-11-28T16:01:28.943Z,13.60
2022-11-28T16:04:05.260Z,12.52
2022-11-28T16:06:36.733Z,16.95
2022-11-28T16:09:07.042Z,12.80
2022-11-28T16:11:35.661Z,12.48
2022-11-28T16:14:09.238Z,14.40
2022-11-28T16:16:38.190Z,10.38
2022-11-28T16:19:08.837Z,14.90
2022-11-28T16:21:46.233Z,12.43
2022-11-28T16:24:33.658Z,12.10
2022-11-28T16:27:05.039Z,16.35
2022-11-28T16:29:34.969Z,13.38
2022-11-28T16:32:23.014Z,13.27
2022-11-28T16:34:51.871Z,12.30
2022-11-28T16:37:24.556Z,14.80
2022-11-28T16:40:15.717Z,13.57
2022-11-28T16:42:42.828Z,15.82
2022-11-28T16:45:30.568Z,17.52
2022-11-28T16:48:08.806Z,17.77
2022-11-28T16:50:37.068Z,17.20
2022-11-28T16:53:04.940Z,20.45
2022-11-28T16:55:34.733Z,22.95
2022-11-28T16:58:13.413Z,38.67
2022-11-28T17:00:43.873Z,24.77
2022-11-28T17:03:47.902Z,21.92
2022-11-28T17:06:28.368Z,14.20
2022-11-28T17:08:56.283Z,13.52
2022-11-28T17:11:26.665Z,19.23
2022-11-28T17:13:57.272Z,17.60
2022-11-28T17:16:26.290Z,17.30
2022-11-28T17:18:53.287Z,14.93
2022-11-28T17:21:34.108Z,18.88
2022-11-28T17:24:01.736Z,18.48
2022-11-28T17:26:28.693Z,18.13
2022-11-28T17:28:55.595Z,17.38
2022-11-28T17:31:23.730Z,20.95
2022-11-28T17:33:50.911Z,22.02
2022-11-28T17:36:17.571Z,18.75
2022-11-28T17:38:44.242Z,17.55
2022-11-28T17:41:13.775Z,25.08
2022-11-28T17:43:41.214Z,20.48
2022-11-28T17:46:08.860Z,24.98
2022-11-28T17:48:35.560Z,21.52
2022-11-28T17:51:03.585Z,24.67
2022-11-28T17:53:30.787Z,23.73
2022-11-28T17:55:59.742Z,26.38
2022-11-28T17:58:27.406Z,22.65
2022-11-28T18:01:00.240Z,25.08
2022-11-28T18:03:28.432Z,36.47
2022-11-28T18:05:55.251Z,34.17
2022-11-28T18:08:22.549Z,49.75
2022-11-28T18:10:49.542Z,32.75
2022-11-28T18:13:17.616Z,27.35
2022-11-28T18:15:45.932Z,26.83
2022-11-28T18:18:13.005Z,22.67
2022-11-28T18:20:40.169Z,19.80
2022-11-28T18:23:11.103Z,24.90
2022-11-28T18:25:42.746Z,32.40
2022-11-28T18:28:18.663Z,22.52
2022-11-28T18:30:47.819Z,20.45
2022-11-28T18:33:15.239Z,29.45
2022-11-28T18:35:42.551Z,32.08
2022-11-28T18:38:11.723Z,26.90
2022-11-28T18:40:38.931Z,32.88
2022-11-28T18:43:06.548Z,41.90
2022-11-28T18:45:34.412Z,41.28
2022-11-28T18:48:01.937Z,42.60
2022-11-28T18:50:29.314Z,36.05
2022-11-28T18:52:56.090Z,36.58
2022-11-28T18:55:23.505Z,49.92
2022-11-28T18:57:50.250Z,48.65
2022-11-28T19:00:17.693Z,44.50
2022-11-28T19:02:44.383Z,38.25
2022-11-28T19:05:11.046Z,30.80
2022-11-28T19:07:37.808Z,39.15
2022-11-28T19:10:04.924Z,34.55
2022-11-28T19:12:31.718Z,25.25
2022-11-28T19:15:02.074Z,30.10
2022-11-28T19:17:29.483Z,34.78
2022-11-28T19:19:56.334Z,40.10
2022-11-28T19:22:23.086Z,35.40
2022-11-28T19:24:49.756Z,36.15
2022-11-28T19:27:16.396Z,37.03
2022-11-28T19:29:43.433Z,29.73
2022-11-28T19:32:10.456Z,40.15
2022-11-28T19:34:37.102Z,36.50
2022-11-28T19:37:03.776Z,52.25
2022-11-28T19:39:30.499Z,39.67
2022-11-28T19:41:57.600Z,35.60
2022-11-28T19:44:26.428Z,36.08
2022-11-28T19:46:53.408Z,41.38
2022-11-28T19:49:22.651Z,37.72
2022-11-28T19:51:50.114Z,42.90
2022-11-28T19:54:21.583Z,42.88
2022-11-28T19:56:49.052Z,54.33
2022-11-28T19:59:16.648Z,53.33
2022-11-28T20:01:43.924Z,37.72
2022-11-28T20:04:11.206Z,53.63
2022-11-28T20:06:38.304Z,67.22
2022-11-28T20:09:09.023Z,40.45
2022-11-28T20:11:40.529Z,40.85
2022-11-28T20:14:12.396Z,34.60
2022-11-28T20:16:40.644Z,32.78
2022-11-28T20:19:10.914Z,49.45
2022-11-28T20:21:37.898Z,40.95
2022-11-28T20:24:07.325Z,38.15
2022-11-28T20:26:40.695Z,42.70
2022-11-28T20:29:08.715Z,33.67
2022-11-28T20:31:37.659Z,37.88
2022-11-28T20:34:06.028Z,28.15
2022-11-28T20:36:33.611Z,42.03
2022-11-28T20:39:01.109Z,30.83
2022-11-28T20:41:28.444Z,44.53
2022-11-28T20:43:55.352Z,42.85
2022-11-28T20:46:27.022Z,40.40
2022-11-28T20:48:54.470Z,49.05
2022-11-28T20:51:24.698Z,51.53
2022-11-28T20:53:51.714Z,53.42
2022-11-28T20:56:21.081Z,41.60
2022-11-28T20:58:48.753Z,66.93
2022-11-28T21:01:26.724Z,53.15
2022-11-28T21:03:53.369Z,58.65
2022-11-28T21:06:20.706Z,55.78
2022-11-28T21:08:47.475Z,40.90
2022-11-28T21:11:36.652Z,41.55
2022-11-28T21:14:05.059Z,47.05
2022-11-28T21:16:33.515Z,46.10
2022-11-28T21:19:07.313Z,43.55
2022-11-28T21:21:34.921Z,40.85
2022-11-28T21:24:06.748Z,58.40
2022-11-28T21:26:40.475Z,47.13
2022-11-28T21:29:09.400Z,46.60
2022-11-28T21:31:40.423Z,44.47
2022-11-28T21:34:07.257Z,36.58
2022-11-28T21:36:33.904Z,29.45
2022-11-28T21:39:01.230Z,47.38
2022-11-28T21:41:32.771Z,37.75
2022-11-28T21:44:00.429Z,35.92
2022-11-28T21:46:28.440Z,39.03
2022-11-28T21:48:55.142Z,50.15
2022-11-28T21:51:24.402Z,77.72
2022-11-28T21:53:51.717Z,74.28
2022-11-28T21:56:19.956Z,56.67
2022-11-28T21:58:47.872Z,59.80
2022-11-28T22:01:15.346Z,34.85
2022-11-28T22:03:43.626Z,41.67
2022-11-28T22:06:23.296Z,56.58
2022-11-28T22:08:51.431Z,43.50
2022-11-28T22:11:19.744Z,52.90
2022-11-28T22:13:47.198Z,62.17
2022-11-28T22:16:19.685Z,53.03
2022-11-28T22:18:48.513Z,47.03
2022-11-28T22:21:49.828Z,56.55
2022-11-28T22:24:03.095Z,34.00
2022-11-28T22:26:29.740Z,58.22
2022-11-28T22:28:58.709Z,63.85
2022-11-28T22:31:25.593Z,39.58
2022-11-28T22:33:52.773Z,33.38
2022-11-28T22:36:21.128Z,32.50
2022-11-28T22:38:49.557Z,45.13
2022-11-28T22:41:27.949Z,42.95
2022-11-28T22:44:00.718Z,38.30
2022-11-28T22:46:28.808Z,21.88
2022-11-28T22:48:55.597Z,34.67
2022-11-28T22:51:25.434Z,33.60
2022-11-28T22:53:58.546Z,41.72
2022-11-28T22:56:28.101Z,21.95
2022-11-28T22:58:54.861Z,25.10
2022-11-28T23:01:26.475Z,27.42
2022-11-28T23:03:53.971Z,17.40
2022-11-28T23:06:27.710Z,17.00
2022-11-28T23:08:56.027Z,21.88
2022-11-28T23:11:27.874Z,24.48
2022-11-28T23:13:55.621Z,19.85
2022-11-28T23:16:24.307Z,19.95
2022-11-28T23:18:52.971Z,19.33
2022-11-28T23:21:21.763Z,18.42
2022-11-28T23:23:49.023Z,21.85
2022-11-28T23:26:22.240Z,16.55
2022-11-28T23:28:50.267Z,19.98
2022-11-28T23:31:20.002Z,17.35
2022-11-28T23:33:47.622Z,19.02
2022-11-28T23:36:25.589Z,18.67
2022-11-28T23:38:56.169Z,24.58
2022-11-28T23:41:23.619Z,26.08
2022-11-28T23:43:50.461Z,27.50
2022-11-28T23:46:18.860Z,25.23
2022-11-28T23:48:46.801Z,19.65
2022-11-28T23:51:15.153Z,23.52
2022-11-28T23:53:42.713Z,20.10
2022-11-28T23:56:13.819Z,20.52
2022-11-28T23:58:41.694Z,20.40
